CNL weather

Sindal Airport
Sindal, North Jutland, Denmark

Public forecast

Using degrees Celsius for public forecast. Weather courtesy of forecast.io.

Current aviation weather report (METAR) for Sindal Airport

Report is more than 6 hours old.

Retrieved 2019/12/10 12:50 UTC (8 hours ago):

EKSN 101250Z 18008KT 9999 SCT021 BKN045 02/00 Q1014

Closest aviation forecast (TAF) to Sindal Airport

Closest forecast is Aalborg Airport, 27.6 nm (51.1 km) SSW. Retrieved 2019/12/10 21:20 UTC (0 seconds ago):

TAF EKYT 102010Z 1021/1121 18022G35KT 9999 BKN040 BECMG 1021/1024 6000 -RADZ BKN014 TEMPO 1100/1105 3000 RA BKN008 BECMG 1103/1105 20012KT BECMG 1105/1108 9999 NSW BKN030